Time;durP1;ratioP1;P1;durP2;ratioP2;P2;SDS_P1;SDS_P2;PMS_P1;PMS_P2;Temp;Humidity;BMP_temperature;BMP_pressure;BME280_temperature;BME280_humidity;BME280_pressure;Samples;Min_cycle;Max_cycle;Signal;HPM_P1;HPM_P2
2023/04/12 00:00:32;;;;;;;7.53;5.55;;;14.70;70.10;;;;;;4998324;28;20067;-77
2023/04/12 00:03:01;;;;;;;7.78;6.00;;;14.70;69.20;;;;;;5005738;28;20529;-77
2023/04/12 00:05:30;;;;;;;6.90;5.13;;;14.70;69.00;;;;;;5007326;28;20024;-77
2023/04/12 00:07:57;;;;;;;6.10;5.50;;;14.80;68.80;;;;;;5004651;28;20101;-77
2023/04/12 00:10:22;;;;;;;8.95;6.15;;;14.80;68.40;;;;;;5005627;28;20031;-77
2023/04/12 00:12:48;;;;;;;6.95;5.90;;;14.80;68.20;;;;;;5006999;28;20045;-78
2023/04/12 00:15:14;;;;;;;7.95;5.75;;;14.80;68.10;;;;;;4993113;28;20522;-77
2023/04/12 00:17:40;;;;;;;8.93;5.70;;;14.80;67.90;;;;;;5004733;28;20032;-77
2023/04/12 00:20:12;;;;;;;6.38;5.25;;;14.80;67.80;;;;;;4999482;28;20041;-77
2023/04/12 00:22:40;;;;;;;8.35;5.85;;;14.80;67.40;;;;;;5004405;28;20030;-78
2023/04/12 00:25:06;;;;;;;6.95;5.13;;;14.80;67.20;;;;;;5003369;28;20038;-78
2023/04/12 00:27:32;;;;;;;6.68;5.30;;;14.80;67.50;;;;;;5003903;28;20025;-77
2023/04/12 00:29:58;;;;;;;6.13;4.93;;;14.80;66.50;;;;;;5003864;28;20383;-77
2023/04/12 00:32:23;;;;;;;5.80;4.70;;;14.80;65.90;;;;;;5006369;28;20026;-77
2023/04/12 00:34:49;;;;;;;7.18;5.13;;;14.80;65.60;;;;;;5006279;28;20429;-78
2023/04/12 00:37:14;;;;;;;6.28;4.78;;;14.70;65.30;;;;;;5005257;28;20038;-77
2023/04/12 00:39:40;;;;;;;6.53;4.93;;;14.70;65.40;;;;;;5006609;28;20170;-77
2023/04/12 00:42:06;;;;;;;6.70;4.80;;;14.70;65.00;;;;;;5006176;28;20109;-77
2023/04/12 00:44:32;;;;;;;5.90;4.63;;;14.70;64.80;;;;;;5007687;28;20033;-77
2023/04/12 00:47:04;;;;;;;6.38;4.82;;;14.70;64.70;;;;;;5007000;28;20030;-76
2023/04/12 00:49:30;;;;;;;5.65;4.57;;;14.70;64.50;;;;;;4998848;28;20491;-76
2023/04/12 00:52:03;;;;;;;5.43;4.50;;;14.80;64.30;;;;;;4999012;28;20065;-76
2023/04/12 00:54:33;;;;;;;5.88;4.38;;;14.70;64.10;;;;;;5001119;28;20471;-76
2023/04/12 00:57:02;;;;;;;5.40;3.97;;;14.70;63.90;;;;;;4995313;28;20029;-77
2023/04/12 00:59:28;;;;;;;6.50;4.40;;;14.70;63.70;;;;;;4993354;28;20029;-76
2023/04/12 01:01:55;;;;;;;6.40;4.57;;;14.70;63.50;;;;;;5002643;28;20057;-76
2023/04/12 01:04:21;;;;;;;6.57;4.78;;;14.70;63.40;;;;;;5004094;28;20133;-76
2023/04/12 01:07:02;;;;;;;5.88;4.50;;;14.70;63.20;;;;;;5001966;28;20057;-77
2023/04/12 01:09:37;;;;;;;6.32;4.70;;;14.60;63.10;;;;;;4999393;28;20030;-76
2023/04/12 01:12:41;;;;;;;5.70;4.15;;;14.70;62.80;;;;;;5006348;28;20037;-76
2023/04/12 01:15:13;;;;;;;7.78;4.20;;;14.70;62.60;;;;;;5002760;28;20033;-76
2023/04/12 01:18:04;;;;;;;6.43;4.95;;;14.70;62.30;;;;;;5000312;28;20539;-76
2023/04/12 01:20:36;;;;;;;8.38;4.88;;;14.60;62.20;;;;;;4999079;28;20360;-77
2023/04/12 01:23:25;;;;;;;6.43;5.10;;;14.60;61.80;;;;;;4998655;28;20099;-77
2023/04/12 01:26:20;;;;;;;7.22;4.90;;;14.60;61.60;;;;;;5005747;28;20026;-77
2023/04/12 01:28:49;;;;;;;7.05;4.95;;;14.60;61.70;;;;;;4988220;28;20080;-77
2023/04/12 01:31:16;;;;;;;5.55;4.72;;;14.60;61.60;;;;;;5003410;28;20123;-77
2023/04/12 01:33:44;;;;;;;5.45;4.72;;;14.50;61.50;;;;;;4999532;28;20083;-77
2023/04/12 01:36:16;;;;;;;6.32;5.03;;;14.50;61.60;;;;;;5008998;28;20030;-78
2023/04/12 01:38:43;;;;;;;5.72;5.00;;;14.50;61.80;;;;;;4995386;28;20045;-78
2023/04/12 01:41:09;;;;;;;10.05;6.07;;;14.50;61.80;;;;;;5002860;28;20022;-78
2023/04/12 01:43:45;;;;;;;7.35;5.70;;;14.50;61.70;;;;;;5000381;28;20104;-78
2023/04/12 01:46:13;;;;;;;6.97;5.20;;;14.40;61.40;;;;;;5002879;28;20153;-77
2023/04/12 01:48:43;;;;;;;7.22;4.78;;;14.40;61.10;;;;;;4998982;28;20040;-77
2023/04/12 01:51:49;;;;;;;8.00;6.43;;;14.50;61.10;;;;;;4994796;28;20440;-77
2023/04/12 01:54:27;;;;;;;8.05;5.90;;;14.40;61.20;;;;;;5012788;28;20491;-77
2023/04/12 01:57:02;;;;;;;5.82;4.82;;;14.50;61.30;;;;;;5000991;28;20031;-77
2023/04/12 01:59:33;;;;;;;6.25;4.90;;;14.50;60.90;;;;;;5005304;28;20467;-78
2023/04/12 02:01:59;;;;;;;7.80;5.32;;;14.50;60.70;;;;;;4999565;28;20064;-77
2023/04/12 02:04:26;;;;;;;7.32;5.55;;;14.50;60.40;;;;;;5000657;28;20160;-77
2023/04/12 02:06:53;;;;;;;6.93;5.32;;;14.50;60.40;;;;;;5002933;28;20534;-77
2023/04/12 02:09:18;;;;;;;7.93;5.47;;;14.40;60.50;;;;;;5006465;28;20034;-77
2023/04/12 02:11:48;;;;;;;8.10;6.03;;;14.50;60.60;;;;;;5003045;28;20494;-77
2023/04/12 02:14:14;;;;;;;8.30;6.00;;;14.50;60.70;;;;;;5008858;28;20378;-77
2023/04/12 02:16:43;;;;;;;6.93;5.25;;;14.50;60.70;;;;;;5010783;28;20039;-77
2023/04/12 02:19:09;;;;;;;8.57;6.47;;;14.50;60.80;;;;;;4999159;28;20025;-77
2023/04/12 02:21:42;;;;;;;10.02;5.88;;;14.40;61.00;;;;;;5002931;28;20038;-77
2023/04/12 02:24:09;;;;;;;9.82;6.32;;;14.40;61.10;;;;;;5002030;28;20031;-78
2023/04/12 02:26:36;;;;;;;8.93;6.78;;;14.40;61.70;;;;;;4999360;28;20400;-77
2023/04/12 02:29:02;;;;;;;8.98;7.10;;;14.40;61.30;;;;;;4995926;28;20033;-77
2023/04/12 02:31:29;;;;;;;11.77;7.53;;;14.30;61.30;;;;;;4997543;28;20487;-77
2023/04/12 02:33:55;;;;;;;9.80;7.10;;;14.30;61.50;;;;;;4998720;28;20034;-77
2023/04/12 02:36:20;;;;;;;8.95;7.32;;;14.30;61.60;;;;;;5005510;28;20030;-76
2023/04/12 02:38:49;;;;;;;12.70;7.43;;;14.30;61.90;;;;;;4994989;28;20025;-77
2023/04/12 02:41:19;;;;;;;9.65;8.00;;;14.30;62.00;;;;;;5001800;28;20490;-77
2023/04/12 02:43:45;;;;;;;9.93;7.75;;;14.20;62.10;;;;;;5004729;28;20363;-77
2023/04/12 02:46:18;;;;;;;15.70;8.38;;;14.20;62.30;;;;;;4998684;28;20122;-77
2023/04/12 02:48:44;;;;;;;8.77;7.38;;;14.10;62.40;;;;;;4998714;28;20034;-77
2023/04/12 02:51:10;;;;;;;10.38;7.75;;;14.10;62.40;;;;;;4998617;28;20030;-77
2023/04/12 02:53:35;;;;;;;9.07;7.13;;;14.10;62.70;;;;;;5010062;28;20030;-76
2023/04/12 02:56:03;;;;;;;9.68;7.75;;;14.10;62.80;;;;;;5002094;28;20044;-77
2023/04/12 02:58:29;;;;;;;11.68;7.88;;;14.10;62.90;;;;;;5009853;28;20399;-77
2023/04/12 03:00:58;;;;;;;13.13;6.53;;;14.10;63.00;;;;;;5006886;28;20063;-78
2023/04/12 03:03:25;;;;;;;10.90;8.25;;;14.10;63.00;;;;;;5001346;28;20588;-77
2023/04/12 03:05:51;;;;;;;9.38;7.47;;;14.10;63.00;;;;;;4996154;28;20356;-77
2023/04/12 03:08:18;;;;;;;9.35;7.13;;;14.10;62.80;;;;;;4997398;28;20038;-77
2023/04/12 03:10:43;;;;;;;9.52;7.53;;;14.10;62.90;;;;;;4995906;28;20034;-77
2023/04/12 03:13:10;;;;;;;8.80;6.90;;;14.10;62.80;;;;;;5003726;28;20037;-77
2023/04/12 03:15:35;;;;;;;12.40;7.60;;;14.10;62.90;;;;;;5005184;28;20455;-77
2023/04/12 03:18:01;;;;;;;9.23;7.47;;;14.10;63.10;;;;;;5005634;28;20117;-77
2023/04/12 03:20:27;;;;;;;7.75;6.72;;;14.10;63.20;;;;;;5018872;28;20479;-77
2023/04/12 03:22:53;;;;;;;9.15;7.32;;;14.10;63.10;;;;;;5020942;28;20049;-77
2023/04/12 03:25:19;;;;;;;10.02;7.22;;;14.10;63.00;;;;;;5005655;28;20034;-77
2023/04/12 03:27:45;;;;;;;8.07;6.45;;;14.10;63.00;;;;;;4997927;28;20543;-78
2023/04/12 03:30:11;;;;;;;9.48;7.28;;;14.10;63.10;;;;;;5005043;28;20041;-77
2023/04/12 03:32:38;;;;;;;9.65;7.28;;;14.10;63.20;;;;;;5005276;28;20072;-77
2023/04/12 03:35:06;;;;;;;11.82;7.80;;;14.10;63.10;;;;;;5008526;28;20030;-76
2023/04/12 03:37:32;;;;;;;10.88;7.35;;;14.10;63.00;;;;;;5000168;28;20030;-77
2023/04/12 03:39:58;;;;;;;9.48;7.25;;;14.10;63.10;;;;;;5008278;28;20026;-77
2023/04/12 03:42:24;;;;;;;10.65;8.10;;;14.10;63.10;;;;;;4994682;28;20038;-76
2023/04/12 03:44:51;;;;;;;9.02;6.90;;;14.20;63.40;;;;;;5003451;28;20031;-76
2023/04/12 03:47:17;;;;;;;12.52;9.50;;;14.20;63.30;;;;;;5004711;28;20045;-76
2023/04/12 03:49:43;;;;;;;10.07;7.72;;;14.20;63.20;;;;;;4996341;28;20034;-76
2023/04/12 03:52:08;;;;;;;11.32;8.00;;;14.10;63.20;;;;;;4996600;28;20033;-76
2023/04/12 03:54:34;;;;;;;10.75;8.82;;;14.10;63.20;;;;;;5002103;28;20112;-77
2023/04/12 03:57:00;;;;;;;12.25;8.05;;;14.10;63.70;;;;;;5001663;28;20045;-77
2023/04/12 03:59:27;;;;;;;12.15;8.18;;;14.10;63.60;;;;;;5001609;28;20075;-77
2023/04/12 04:01:54;;;;;;;9.07;7.07;;;14.10;63.70;;;;;;4998826;28;20064;-77
2023/04/12 04:04:20;;;;;;;10.60;8.32;;;14.00;63.60;;;;;;4999798;28;20104;-76
2023/04/12 04:06:46;;;;;;;10.57;8.25;;;14.00;63.70;;;;;;4998072;28;20187;-76
2023/04/12 04:09:12;;;;;;;9.38;7.78;;;14.00;63.60;;;;;;4999608;28;20433;-77
2023/04/12 04:11:37;;;;;;;10.32;7.85;;;14.00;64.10;;;;;;5001651;28;20064;-76
2023/04/12 04:14:03;;;;;;;9.63;7.20;;;13.90;63.70;;;;;;4996145;28;20029;-76
2023/04/12 04:16:29;;;;;;;10.75;8.15;;;13.90;63.90;;;;;;4994669;28;20061;-77
2023/04/12 04:18:55;;;;;;;10.90;8.43;;;13.80;64.10;;;;;;4994836;28;20034;-76
2023/04/12 04:21:21;;;;;;;10.20;7.00;;;13.80;64.20;;;;;;5000129;28;20143;-78
2023/04/12 04:23:47;;;;;;;10.23;8.60;;;13.90;64.40;;;;;;4997736;28;20059;-77
2023/04/12 04:26:14;;;;;;;10.50;7.97;;;13.90;64.30;;;;;;4998219;28;20037;-78
2023/04/12 04:28:43;;;;;;;9.18;7.68;;;13.90;64.10;;;;;;4996879;28;20076;-77
2023/04/12 04:31:10;;;;;;;9.32;7.50;;;13.90;64.10;;;;;;5004052;28;20080;-77
2023/04/12 04:33:38;;;;;;;10.55;7.88;;;13.90;64.30;;;;;;4997740;28;20028;-77
2023/04/12 04:36:05;;;;;;;10.65;7.75;;;13.90;64.30;;;;;;4994692;28;20022;-77
2023/04/12 04:38:33;;;;;;;9.27;7.47;;;13.90;64.30;;;;;;4994240;28;20089;-77
2023/04/12 04:41:01;;;;;;;10.57;7.68;;;13.90;64.40;;;;;;4989969;28;20033;-77
2023/04/12 04:43:29;;;;;;;11.32;8.18;;;13.90;64.40;;;;;;4999785;28;20498;-77
2023/04/12 04:45:55;;;;;;;10.30;7.97;;;13.90;64.50;;;;;;5003240;28;20041;-76
2023/04/12 04:48:22;;;;;;;10.18;7.93;;;13.90;64.60;;;;;;5004024;28;20034;-78
2023/04/12 04:50:47;;;;;;;10.48;7.55;;;14.00;64.80;;;;;;5018504;28;20082;-78
2023/04/12 04:53:15;;;;;;;16.55;9.30;;;14.00;64.80;;;;;;5004058;28;20463;-78
2023/04/12 04:55:40;;;;;;;10.60;7.28;;;14.00;64.70;;;;;;5002934;28;20035;-78
2023/04/12 04:58:06;;;;;;;12.15;8.05;;;13.90;64.60;;;;;;4995837;28;20498;-78
2023/04/12 05:00:34;;;;;;;11.13;7.90;;;13.90;65.20;;;;;;5005146;28;20022;-77
2023/04/12 05:03:01;;;;;;;10.63;8.35;;;13.90;64.70;;;;;;4993610;28;20042;-78
2023/04/12 05:05:26;;;;;;;10.73;7.45;;;13.90;65.10;;;;;;5005421;28;20429;-78
2023/04/12 05:07:56;;;;;;;10.65;8.13;;;13.90;65.20;;;;;;5002383;28;20038;-78
2023/04/12 05:10:22;;;;;;;10.25;8.30;;;13.90;65.20;;;;;;4992446;28;20741;-77
2023/04/12 05:12:48;;;;;;;9.98;7.57;;;13.90;65.30;;;;;;5001019;28;20142;-77
2023/04/12 05:15:13;;;;;;;11.40;7.97;;;13.90;65.20;;;;;;5004355;28;20038;-77
2023/04/12 05:17:39;;;;;;;12.05;7.78;;;13.90;65.30;;;;;;5006080;28;20049;-77
2023/04/12 05:20:07;;;;;;;11.10;8.43;;;13.90;65.20;;;;;;4995951;28;20042;-79
2023/04/12 05:22:34;;;;;;;11.25;7.45;;;14.00;65.00;;;;;;4992751;28;20379;-77
2023/04/12 05:25:00;;;;;;;9.77;7.95;;;14.00;65.60;;;;;;4992505;28;20038;-76
2023/04/12 05:27:28;;;;;;;11.23;8.57;;;14.00;64.80;;;;;;4988414;28;20030;-77
2023/04/12 05:29:56;;;;;;;10.07;7.65;;;14.00;64.70;;;;;;4997940;28;20031;-76
2023/04/12 05:32:22;;;;;;;10.02;7.68;;;14.00;64.90;;;;;;4997822;28;20038;-76
2023/04/12 05:34:47;;;;;;;11.70;8.27;;;14.00;64.80;;;;;;4997815;28;20108;-76
2023/04/12 05:37:14;;;;;;;10.05;7.55;;;14.10;65.30;;;;;;4999416;28;20049;-76
2023/04/12 05:39:40;;;;;;;12.23;7.68;;;14.10;65.00;;;;;;5000000;28;20109;-76
2023/04/12 05:42:05;;;;;;;13.32;8.88;;;14.10;64.90;;;;;;4995844;28;20125;-77
2023/04/12 05:44:33;;;;;;;10.48;8.02;;;14.10;64.40;;;;;;4996509;28;20030;-77
2023/04/12 05:46:59;;;;;;;10.88;8.27;;;14.10;64.90;;;;;;4997734;28;20034;-77
2023/04/12 05:49:30;;;;;;;12.13;8.18;;;14.10;64.70;;;;;;4996415;28;20376;-77
2023/04/12 05:51:57;;;;;;;10.52;8.05;;;14.10;64.60;;;;;;4998502;28;20034;-78
2023/04/12 05:54:24;;;;;;;13.30;8.10;;;14.10;64.70;;;;;;5006858;28;20145;-75
2023/04/12 05:56:51;;;;;;;11.80;8.10;;;14.10;65.20;;;;;;5001887;28;20033;-75
2023/04/12 05:59:18;;;;;;;13.13;7.38;;;14.10;65.60;;;;;;5006254;28;20041;-76
2023/04/12 06:01:44;;;;;;;11.30;7.57;;;14.20;65.70;;;;;;4998503;28;20044;-76
2023/04/12 06:04:10;;;;;;;10.27;7.53;;;14.40;65.70;;;;;;4997927;28;20038;-79
2023/04/12 06:06:36;;;;;;;9.00;7.28;;;14.40;65.50;;;;;;5001160;28;20034;-79
2023/04/12 06:09:03;;;;;;;10.70;7.65;;;14.50;65.70;;;;;;4998613;28;20487;-79
2023/04/12 06:11:30;;;;;;;14.07;6.90;;;14.50;65.60;;;;;;5001892;28;20709;-80
2023/04/12 06:13:56;;;;;;;10.93;8.02;;;14.60;65.30;;;;;;5004187;28;20048;-78
2023/04/12 06:16:22;;;;;;;12.38;8.45;;;14.60;65.10;;;;;;4990083;28;20057;-78
2023/04/12 06:18:47;;;;;;;9.00;7.05;;;14.60;65.00;;;;;;4990068;28;20038;-79
2023/04/12 06:21:13;;;;;;;10.35;7.70;;;14.60;65.10;;;;;;4988513;28;20026;-80
2023/04/12 06:23:39;;;;;;;10.48;8.43;;;14.60;65.00;;;;;;4976220;28;20146;-78
2023/04/12 06:26:05;;;;;;;9.82;7.07;;;14.60;65.10;;;;;;4994219;28;20030;-78
2023/04/12 06:28:30;;;;;;;9.85;7.93;;;14.60;65.10;;;;;;4998805;28;20042;-78
2023/04/12 06:31:04;;;;;;;11.80;7.32;;;14.70;65.40;;;;;;5000028;28;20038;-78
2023/04/12 06:33:30;;;;;;;10.35;7.80;;;14.70;65.20;;;;;;4979273;28;20026;-85
2023/04/12 06:35:55;;;;;;;10.70;7.85;;;14.70;64.90;;;;;;4988957;28;20480;-83
2023/04/12 06:38:21;;;;;;;10.70;7.43;;;14.70;65.20;;;;;;5002848;28;20506;-81
2023/04/12 06:40:47;;;;;;;12.73;7.80;;;14.70;64.90;;;;;;4998677;28;20105;-81
2023/04/12 06:43:18;;;;;;;10.73;7.82;;;14.70;65.30;;;;;;5016497;28;20090;-81
2023/04/12 06:45:44;;;;;;;9.00;7.28;;;14.70;65.30;;;;;;4986328;28;20030;-82
2023/04/12 06:48:10;;;;;;;10.02;7.35;;;14.70;65.50;;;;;;5006695;28;20038;-82
2023/04/12 06:50:36;;;;;;;11.73;7.82;;;14.70;65.70;;;;;;5022532;28;20485;-83
2023/04/12 06:53:01;;;;;;;9.98;7.50;;;14.70;65.30;;;;;;5018024;28;20057;-81
2023/04/12 06:55:28;;;;;;;12.25;8.15;;;14.60;65.20;;;;;;4998977;28;20478;-81
2023/04/12 06:57:54;;;;;;;10.77;7.95;;;14.60;65.30;;;;;;4991543;28;20035;-80
2023/04/12 07:00:20;;;;;;;10.88;7.55;;;14.50;65.40;;;;;;5006442;28;20034;-80
2023/04/12 07:02:46;;;;;;;13.80;8.30;;;14.50;66.00;;;;;;5002870;28;20079;-81
2023/04/12 07:05:12;;;;;;;12.38;7.50;;;14.60;66.20;;;;;;5007042;28;20038;-81
2023/04/12 07:07:38;;;;;;;12.60;8.60;;;14.60;66.00;;;;;;5016931;28;20028;-80
2023/04/12 07:10:04;;;;;;;10.77;8.63;;;14.70;66.70;;;;;;5023762;28;20425;-78
2023/04/12 07:12:30;;;;;;;10.55;7.40;;;14.70;66.90;;;;;;4991854;28;20039;-78
2023/04/12 07:14:56;;;;;;;11.85;7.75;;;14.80;66.50;;;;;;5001367;28;20112;-77
2023/04/12 07:17:23;;;;;;;10.55;7.05;;;14.90;66.70;;;;;;5001895;28;20027;-78
2023/04/12 07:19:49;;;;;;;11.48;7.63;;;15.00;66.60;;;;;;5001126;28;20093;-78
2023/04/12 07:22:15;;;;;;;10.07;7.60;;;15.10;66.20;;;;;;4992312;28;20061;-78
2023/04/12 07:24:40;;;;;;;11.18;7.80;;;15.10;66.20;;;;;;4992620;28;20060;-79
2023/04/12 07:27:06;;;;;;;10.13;7.28;;;15.20;66.30;;;;;;4992751;28;20038;-78
2023/04/12 07:29:32;;;;;;;12.35;7.75;;;15.20;66.30;;;;;;4992522;28;20030;-78
2023/04/12 07:31:59;;;;;;;10.90;7.47;;;15.30;66.10;;;;;;4991520;28;20041;-77
2023/04/12 07:34:24;;;;;;;11.05;7.90;;;15.30;66.20;;;;;;5007767;28;20026;-78
2023/04/12 07:36:50;;;;;;;10.70;7.93;;;15.30;66.10;;;;;;5032737;28;20031;-78
2023/04/12 07:39:16;;;;;;;9.82;7.05;;;15.30;66.20;;;;;;5016355;28;20026;-78
2023/04/12 07:41:45;;;;;;;10.02;7.35;;;15.20;65.80;;;;;;5001938;28;20046;-78
2023/04/12 07:44:11;;;;;;;10.55;7.30;;;15.30;66.20;;;;;;5089976;28;20104;-80
2023/04/12 07:46:38;;;;;;;8.93;7.07;;;15.30;66.50;;;;;;5011855;28;20113;-78
2023/04/12 07:49:03;;;;;;;11.63;6.68;;;15.40;66.60;;;;;;5024362;28;20029;-78
2023/04/12 07:51:29;;;;;;;8.10;6.22;;;15.30;66.30;;;;;;4991545;28;20115;-78
2023/04/12 07:53:55;;;;;;;9.02;6.45;;;15.40;66.40;;;;;;4993131;28;20057;-78
2023/04/12 07:56:21;;;;;;;8.88;6.15;;;15.40;65.80;;;;;;4991130;28;20064;-78
2023/04/12 07:58:47;;;;;;;9.73;6.28;;;15.40;65.80;;;;;;5002480;28;20027;-78
2023/04/12 08:01:14;;;;;;;10.75;7.15;;;15.50;66.10;;;;;;4989946;28;20034;-77
2023/04/12 08:03:40;;;;;;;11.00;6.28;;;15.50;65.50;;;;;;4989587;28;20061;-78
2023/04/12 08:06:06;;;;;;;8.07;6.45;;;15.60;64.60;;;;;;4990276;28;20475;-78
2023/04/12 08:08:32;;;;;;;9.57;6.78;;;15.50;64.50;;;;;;4990512;28;20041;-76
2023/04/12 08:10:57;;;;;;;8.27;6.00;;;15.50;64.70;;;;;;4991130;28;20030;-80
2023/04/12 08:13:23;;;;;;;8.15;6.47;;;15.50;63.80;;;;;;4996676;28;20110;-80
2023/04/12 08:15:49;;;;;;;7.72;6.20;;;15.50;64.40;;;;;;4991112;28;20056;-76
2023/04/12 08:18:14;;;;;;;6.93;5.50;;;15.50;64.20;;;;;;4991884;28;20035;-75
2023/04/12 08:20:41;;;;;;;8.00;5.95;;;15.50;64.50;;;;;;4998984;28;20035;-75
2023/04/12 08:23:06;;;;;;;5.90;5.05;;;15.50;64.50;;;;;;4990492;28;20033;-80
2023/04/12 08:25:33;;;;;;;8.95;6.38;;;15.50;64.30;;;;;;4990723;28;20022;-79
2023/04/12 08:27:59;;;;;;;7.30;6.28;;;15.60;64.50;;;;;;5002056;28;20438;-80
2023/04/12 08:30:25;;;;;;;8.20;6.13;;;15.60;64.80;;;;;;5091841;28;20103;-81
2023/04/12 08:32:54;;;;;;;7.60;5.90;;;15.70;64.70;;;;;;5083541;28;20461;-81
2023/04/12 08:35:21;;;;;;;8.18;5.97;;;15.80;64.30;;;;;;5094625;28;20018;-80
2023/04/12 08:37:47;;;;;;;10.55;5.43;;;15.80;64.10;;;;;;5033147;28;20061;-80
2023/04/12 08:40:13;;;;;;;7.68;6.07;;;15.80;64.10;;;;;;4992175;28;20479;-80
2023/04/12 08:42:39;;;;;;;7.35;5.90;;;15.80;64.00;;;;;;4990033;28;20317;-80
2023/04/12 08:45:12;;;;;;;8.57;6.45;;;15.90;64.00;;;;;;4991427;28;20059;-80
2023/04/12 08:47:41;;;;;;;8.10;5.70;;;16.00;64.60;;;;;;5001443;28;20032;-81
2023/04/12 08:50:08;;;;;;;6.20;4.80;;;16.10;64.80;;;;;;5027941;28;20090;-80
2023/04/12 08:52:35;;;;;;;8.15;6.30;;;16.10;64.60;;;;;;5000529;28;20069;-81
2023/04/12 08:55:05;;;;;;;6.35;5.22;;;16.30;64.20;;;;;;4990761;28;20340;-81
2023/04/12 08:57:31;;;;;;;6.18;4.97;;;16.50;63.90;;;;;;4990377;28;20030;-74
2023/04/12 09:00:00;;;;;;;9.25;6.25;;;16.70;63.50;;;;;;4990915;28;20035;-75
2023/04/12 09:02:26;;;;;;;6.75;5.63;;;16.80;63.30;;;;;;4989615;28;20050;-75
2023/04/12 09:04:52;;;;;;;6.72;5.32;;;16.90;63.00;;;;;;4989916;28;20085;-75
2023/04/12 09:07:21;;;;;;;7.15;5.53;;;16.90;62.50;;;;;;4989172;28;20027;-75
2023/04/12 09:09:48;;;;;;;7.97;5.22;;;16.90;62.10;;;;;;5004984;28;20034;-75
2023/04/12 09:12:14;;;;;;;7.70;5.50;;;16.90;62.00;;;;;;4998762;28;20037;-75
2023/04/12 09:14:43;;;;;;;10.43;5.80;;;16.80;62.10;;;;;;4988541;28;20381;-78
2023/04/12 09:17:26;;;;;;;6.30;4.90;;;16.80;62.30;;;;;;4994481;28;20058;-79
2023/04/12 09:19:54;;;;;;;7.35;5.35;;;16.80;62.60;;;;;;5000284;28;20059;-79
2023/04/12 09:22:35;;;;;;;7.57;5.65;;;16.80;62.50;;;;;;4989869;28;20037;-79
2023/04/12 09:25:01;;;;;;;9.73;5.47;;;16.80;62.60;;;;;;4984333;28;20034;-79
2023/04/12 09:27:29;;;;;;;8.25;6.10;;;16.80;62.60;;;;;;4997428;28;20117;-79
2023/04/12 09:30:08;;;;;;;6.75;5.15;;;16.80;62.80;;;;;;5000768;28;20030;-79
2023/04/12 09:32:34;;;;;;;8.48;5.55;;;16.80;62.60;;;;;;5020441;28;20091;-79
2023/04/12 09:35:01;;;;;;;8.80;6.15;;;16.70;62.10;;;;;;4989718;28;20027;-79
2023/04/12 09:37:27;;;;;;;9.57;5.82;;;16.70;62.00;;;;;;4989634;28;20030;-79
2023/04/12 09:40:12;;;;;;;6.75;5.47;;;16.70;62.20;;;;;;4989387;28;20026;-79
2023/04/12 09:42:58;;;;;;;14.93;5.63;;;16.60;62.10;;;;;;4989055;28;20038;-79
2023/04/12 09:45:26;;;;;;;7.90;5.90;;;16.60;62.80;;;;;;5009692;28;20716;-79
2023/04/12 09:47:53;;;;;;;7.65;5.40;;;16.60;62.90;;;;;;5030387;28;20057;-79
2023/04/12 09:50:27;;;;;;;9.18;6.15;;;16.60;63.20;;;;;;5002333;28;20521;-79
2023/04/12 09:52:56;;;;;;;9.05;5.85;;;16.60;63.00;;;;;;4986368;28;20030;-78
2023/04/12 09:55:25;;;;;;;7.22;5.13;;;16.60;62.90;;;;;;4989784;28;20053;-79
2023/04/12 09:57:51;;;;;;;9.15;5.55;;;16.60;62.60;;;;;;4988970;28;20034;-78
2023/04/12 10:00:21;;;;;;;12.75;6.05;;;16.70;62.30;;;;;;4989987;28;20029;-79
2023/04/12 10:02:49;;;;;;;8.05;5.47;;;16.70;61.90;;;;;;4990182;28;20051;-79
2023/04/12 10:05:16;;;;;;;7.25;5.43;;;16.90;61.90;;;;;;4989414;28;20034;-79
2023/04/12 10:07:43;;;;;;;6.78;4.68;;;16.90;60.90;;;;;;4990193;28;20049;-80
2023/04/12 10:10:11;;;;;;;5.93;4.25;;;17.00;60.90;;;;;;4990242;28;20498;-79
2023/04/12 10:12:38;;;;;;;6.72;3.88;;;17.00;60.50;;;;;;4989014;28;20200;-79
2023/04/12 10:15:06;;;;;;;4.78;3.70;;;17.10;59.80;;;;;;4985243;28;20046;-79
2023/04/12 10:17:34;;;;;;;5.00;3.78;;;17.20;59.20;;;;;;4989344;28;20027;-79
2023/04/12 10:20:04;;;;;;;3.72;2.95;;;17.20;58.50;;;;;;4990200;28;20035;-80
2023/04/12 10:22:29;;;;;;;4.28;3.45;;;17.30;58.20;;;;;;4989752;28;20062;-77
2023/04/12 10:24:55;;;;;;;8.68;3.42;;;17.40;57.70;;;;;;4989800;28;20182;-78
2023/04/12 10:27:26;;;;;;;3.95;2.88;;;17.60;57.50;;;;;;4990165;28;20027;-78
2023/04/12 10:29:52;;;;;;;3.55;2.78;;;17.60;57.00;;;;;;4993065;28;20030;-78
2023/04/12 10:32:19;;;;;;;4.13;3.13;;;17.80;56.50;;;;;;4987929;28;20376;-78
2023/04/12 10:34:53;;;;;;;4.10;3.00;;;17.80;56.00;;;;;;4991947;28;20022;-79
2023/04/12 10:37:20;;;;;;;4.20;3.25;;;17.90;55.90;;;;;;4993259;28;20029;-78
2023/04/12 10:39:51;;;;;;;4.03;2.60;;;18.00;55.90;;;;;;4993457;28;20060;-78
2023/04/12 10:42:29;;;;;;;7.63;3.88;;;18.10;55.60;;;;;;4993384;28;20034;-78
2023/04/12 10:45:23;;;;;;;3.72;3.13;;;18.20;55.60;;;;;;4990642;28;20109;-80
2023/04/12 10:47:49;;;;;;;4.65;3.03;;;18.30;55.80;;;;;;5025916;28;20053;-80
2023/04/12 10:50:28;;;;;;;3.58;3.08;;;18.30;56.00;;;;;;4992926;28;20179;-80
2023/04/12 10:53:12;;;;;;;3.75;3.13;;;18.30;56.00;;;;;;4977460;28;20073;-80
2023/04/12 10:55:40;;;;;;;4.35;3.13;;;18.40;55.70;;;;;;4983493;28;20371;-80
2023/04/12 10:58:05;;;;;;;4.53;3.35;;;18.30;55.80;;;;;;4993185;28;20052;-80
2023/04/12 11:00:56;;;;;;;5.95;3.33;;;18.30;55.70;;;;;;4992452;28;20022;-80
2023/04/12 11:03:23;;;;;;;3.00;2.65;;;18.30;55.60;;;;;;4992771;28;20043;-80
2023/04/12 11:06:03;;;;;;;6.85;3.45;;;18.40;55.80;;;;;;4992408;28;20121;-80
2023/04/12 11:08:30;;;;;;;4.82;3.03;;;18.50;55.50;;;;;;4992040;28;20026;-80
2023/04/12 11:11:02;;;;;;;5.72;4.32;;;18.60;55.60;;;;;;4992850;28;20491;-80
2023/04/12 11:13:33;;;;;;;3.97;3.03;;;18.60;55.50;;;;;;4990808;28;20030;-79
2023/04/12 11:16:05;;;;;;;4.53;3.30;;;18.60;55.20;;;;;;5009941;28;20022;-80
2023/04/12 11:18:34;;;;;;;3.75;2.88;;;18.70;54.80;;;;;;4995374;28;20084;-76
2023/04/12 11:21:03;;;;;;;10.55;3.33;;;18.60;54.70;;;;;;4992892;28;20026;-76
2023/04/12 11:23:35;;;;;;;5.03;3.47;;;18.60;54.60;;;;;;4990918;28;20022;-76
2023/04/12 11:26:02;;;;;;;4.95;3.40;;;18.60;54.70;;;;;;4989060;28;20033;-76
2023/04/12 11:28:28;;;;;;;4.32;3.92;;;18.60;55.30;;;;;;4989790;28;20037;-76
2023/04/12 11:30:57;;;;;;;5.10;3.35;;;18.50;54.60;;;;;;4989571;28;20027;-76
2023/04/12 11:33:35;;;;;;;5.20;3.25;;;18.50;54.60;;;;;;4990563;28;20388;-76
2023/04/12 11:36:08;;;;;;;4.47;2.88;;;18.50;54.90;;;;;;4989331;28;20030;-79
2023/04/12 11:38:36;;;;;;;4.68;3.45;;;18.50;55.10;;;;;;4989387;28;20026;-79
2023/04/12 11:41:04;;;;;;;5.07;3.38;;;18.40;55.30;;;;;;4987934;28;20088;-80
2023/04/12 11:43:30;;;;;;;6.18;3.42;;;18.40;55.40;;;;;;4989133;28;20797;-79
2023/04/12 11:45:57;;;;;;;5.53;2.90;;;18.40;55.40;;;;;;4994996;28;20034;-80
2023/04/12 11:48:24;;;;;;;5.82;3.50;;;18.40;55.60;;;;;;4990611;28;20031;-79
2023/04/12 11:50:50;;;;;;;5.57;3.47;;;18.40;55.50;;;;;;4988870;28;20034;-77
2023/04/12 11:53:18;;;;;;;4.00;3.30;;;18.40;55.60;;;;;;4989054;28;20080;-76
2023/04/12 11:55:48;;;;;;;3.55;2.72;;;18.40;55.50;;;;;;4987856;28;20113;-79
2023/04/12 11:58:14;;;;;;;;;;;18.40;55.40;;;;;;4989490;28;20030;-79
2023/04/12 12:00:41;;;;;;;7.18;3.25;;;18.50;54.80;;;;;;4987943;28;19914;-79
2023/04/12 12:03:06;;;;;;;3.92;2.67;;;18.60;54.90;;;;;;4990853;28;20059;-80
2023/04/12 12:05:35;;;;;;;3.13;2.63;;;18.70;54.80;;;;;;5014233;28;20644;-79
2023/04/12 12:08:06;;;;;;;7.93;3.08;;;18.80;54.50;;;;;;4991536;28;20491;-79
2023/04/12 12:10:33;;;;;;;3.80;2.80;;;18.90;54.20;;;;;;4992814;28;20054;-79
2023/04/12 12:12:59;;;;;;;4.03;2.85;;;18.90;54.10;;;;;;4993618;28;20029;-79
2023/04/12 12:15:29;;;;;;;3.42;2.95;;;19.00;53.50;;;;;;4991673;28;20049;-79
2023/04/12 12:17:55;;;;;;;;;;;19.20;53.50;;;;;;4990937;28;20026;-79
2023/04/12 12:20:21;;;;;;;4.82;2.70;;;19.40;52.90;;;;;;4986155;28;19928;-78
2023/04/12 12:22:47;;;;;;;9.98;3.13;;;19.60;52.80;;;;;;5000926;28;20041;-78
2023/04/12 12:25:13;;;;;;;5.25;3.25;;;19.90;52.50;;;;;;4993145;28;20038;-78
2023/04/12 12:27:43;;;;;;;3.30;2.53;;;20.40;51.40;;;;;;5014195;28;20472;-78
2023/04/12 12:30:11;;;;;;;3.60;2.85;;;20.80;51.50;;;;;;4990693;28;20038;-79
2023/04/12 12:32:38;;;;;;;3.50;2.65;;;21.10;50.60;;;;;;4989898;28;20034;-79
2023/04/12 12:35:09;;;;;;;5.10;3.22;;;21.20;49.20;;;;;;4999551;28;20060;-78
2023/04/12 12:37:35;;;;;;;3.42;2.65;;;21.20;48.40;;;;;;5003377;28;20045;-78
2023/04/12 12:40:31;;;;;;;4.93;3.10;;;21.10;48.40;;;;;;4993145;28;20026;-78
2023/04/12 12:42:57;;;;;;;2.90;2.22;;;20.90;47.80;;;;;;4988497;28;20552;-78
2023/04/12 12:45:25;;;;;;;3.22;2.45;;;20.70;47.50;;;;;;4990016;28;20026;-78
2023/04/12 12:47:59;;;;;;;2.92;2.22;;;20.50;47.20;;;;;;4989105;28;20030;-78